Time;durP1;ratioP1;P1;durP2;ratioP2;P2;SDS_P1;SDS_P2;PMS_P1;PMS_P2;Temp;Humidity;BMP_temperature;BMP_pressure;BME280_temperature;BME280_humidity;BME280_pressure;Samples;Min_cycle;Max_cycle;Signal;HPM_P1;HPM_P2
2022/01/30 00:02:00;;;;;;;15.13;3.07;;;;;;;;;;5043244;28;20249;-76
2022/01/30 00:04:29;;;;;;;13.90;3.93;;;;;;;;;;5056011;28;20207;-77
2022/01/30 00:06:57;;;;;;;13.20;3.57;;;;;;;;;;5055960;28;20199;-75
2022/01/30 00:09:26;;;;;;;16.47;3.37;;;;;;;;;;5056516;28;20203;-74
2022/01/30 00:11:59;;;;;;;14.33;3.60;;;;;;;;;;5055628;28;20226;-73
2022/01/30 00:14:31;;;;;;;13.47;3.37;;;;;;;;;;5055804;28;20214;-75
2022/01/30 00:17:06;;;;;;;15.67;3.73;;;;;;;;;;5055725;28;20214;-73
2022/01/30 00:19:39;;;;;;;15.57;3.77;;;;;;;;;;5055633;28;20230;-72
2022/01/30 00:22:17;;;;;;;18.90;3.70;;;;;;;;;;5056252;28;20253;-75
2022/01/30 00:24:52;;;;;;;15.63;3.60;;;;;;;;;;5056204;28;20183;-75
2022/01/30 00:27:29;;;;;;;17.47;3.50;;;;;;;;;;5055959;28;20284;-76
2022/01/30 00:29:57;;;;;;;15.43;3.37;;;;;;;;;;5056055;28;20306;-73
2022/01/30 00:32:26;;;;;;;14.20;3.70;;;;;;;;;;5053714;28;20231;-75
2022/01/30 00:35:14;;;;;;;14.20;3.60;;;;;;;;;;5041136;28;20620;-74
2022/01/30 00:37:48;;;;;;;16.83;3.50;;;;;;;;;;5054366;28;20223;-76
2022/01/30 00:40:33;;;;;;;18.73;4.10;;;;;;;;;;5055575;28;20296;-74
2022/01/30 00:43:03;;;;;;;13.43;3.20;;;;;;;;;;5055717;28;20286;-74
2022/01/30 00:45:32;;;;;;;15.07;3.77;;;;;;;;;;5055430;28;20203;-73
2022/01/30 00:48:01;;;;;;;17.67;4.13;;;;;;;;;;5055060;28;20629;-73
2022/01/30 00:50:29;;;;;;;14.07;3.30;;;;;;;;;;5055559;28;20207;-75
2022/01/30 00:52:58;;;;;;;14.03;3.33;;;;;;;;;;5054889;28;20689;-73
2022/01/30 00:55:28;;;;;;;15.07;3.30;;;;;;;;;;5055325;28;20742;-73
2022/01/30 00:57:56;;;;;;;16.97;3.57;;;;;;;;;;5055143;28;20230;-73
2022/01/30 01:00:27;;;;;;;14.00;3.80;;;;;;;;;;5055327;28;20207;-75
2022/01/30 01:02:56;;;;;;;13.77;3.73;;;;;;;;;;5055419;28;20229;-75
2022/01/30 01:05:24;;;;;;;11.80;3.40;;;;;;;;;;5055217;28;20209;-75
2022/01/30 01:07:55;;;;;;;12.83;3.27;;;;;;;;;;5054771;28;20254;-75
2022/01/30 01:10:32;;;;;;;18.10;4.00;;;;;;;;;;5055045;28;20207;-74
2022/01/30 01:13:26;;;;;;;13.90;3.53;;;;;;;;;;5055474;28;20226;-75
2022/01/30 01:24:23;;;;;;;14.80;3.70;;;;;;;;;;5055233;28;20215;-74
2022/01/30 01:26:51;;;;;;;15.90;3.80;;;;;;;;;;5054318;28;20207;-76
2022/01/30 01:29:19;;;;;;;9.30;2.63;;;;;;;;;;5054776;28;20257;-75
2022/01/30 01:31:49;;;;;;;13.37;3.67;;;;;;;;;;5054627;28;20280;-73
2022/01/30 01:37:09;;;;;;;14.30;3.50;;;;;;;;;;5050653;28;20215;-75
2022/01/30 01:39:42;;;;;;;13.53;3.40;;;;;;;;;;5054649;28;20205;-75
2022/01/30 01:42:11;;;;;;;15.93;3.57;;;;;;;;;;5054187;28;20650;-74
2022/01/30 01:44:43;;;;;;;13.67;3.10;;;;;;;;;;5051777;23;20844;-74
2022/01/30 01:47:15;;;;;;;13.53;3.13;;;;;;;;;;5025693;28;20227;-75
2022/01/30 01:49:45;;;;;;;16.33;3.30;;;;;;;;;;5034045;28;20207;-74
2022/01/30 01:52:23;;;;;;;15.67;2.87;;;;;;;;;;5021158;28;20444;-75
2022/01/30 01:54:53;;;;;;;15.43;3.00;;;;;;;;;;5015015;28;20279;-75
2022/01/30 01:57:23;;;;;;;10.33;2.97;;;;;;;;;;5015538;28;20290;-75
2022/01/30 01:59:52;;;;;;;13.87;3.10;;;;;;;;;;5013650;28;20227;-77
2022/01/30 02:02:23;;;;;;;14.43;3.57;;;;;;;;;;5014585;28;20204;-72
2022/01/30 02:04:52;;;;;;;14.50;3.30;;;;;;;;;;5015015;28;20217;-73
2022/01/30 02:07:52;;;;;;;11.83;3.07;;;;;;;;;;5013962;28;20624;-73
2022/01/30 02:10:26;;;;;;;13.13;3.43;;;;;;;;;;5014227;28;20262;-74
2022/01/30 02:13:07;;;;;;;14.97;3.30;;;;;;;;;;5014084;28;20745;-74
2022/01/30 02:23:55;;;;;;;14.00;3.73;;;;;;;;;;5013705;28;20656;-74
2022/01/30 02:24:16;;;;;;;13.30;3.23;;;;;;;;;;4994364;28;20201;-74
2022/01/30 02:26:46;;;;;;;16.50;3.47;;;;;;;;;;4994755;28;20239;-73
2022/01/30 02:29:18;;;;;;;13.97;3.27;;;;;;;;;;4993544;28;20193;-73
2022/01/30 02:31:46;;;;;;;11.73;3.47;;;;;;;;;;5011455;28;20200;-72
2022/01/30 02:34:15;;;;;;;14.67;3.67;;;;;;;;;;5013672;28;20212;-75
2022/01/30 02:36:45;;;;;;;14.70;4.13;;;;;;;;;;5013707;28;20212;-73
2022/01/30 02:39:15;;;;;;;13.17;3.53;;;;;;;;;;5014234;28;20200;-76
2022/01/30 02:41:43;;;;;;;14.00;3.30;;;;;;;;;;5013775;28;20266;-74
2022/01/30 02:44:16;;;;;;;14.60;3.23;;;;;;;;;;5013183;28;20235;-74
2022/01/30 02:46:47;;;;;;;18.00;3.33;;;;;;;;;;5013668;28;20231;-76
2022/01/30 02:49:40;;;;;;;13.10;3.33;;;;;;;;;;5013781;28;20262;-73
2022/01/30 02:52:09;;;;;;;15.20;3.93;;;;;;;;;;5013029;28;20208;-76
2022/01/30 02:54:40;;;;;;;13.90;3.90;;;;;;;;;;5013418;28;20255;-72
2022/01/30 02:57:09;;;;;;;9.27;2.93;;;;;;;;;;5013476;28;20695;-74
2022/01/30 02:59:39;;;;;;;15.30;3.60;;;;;;;;;;5013201;28;20206;-74
2022/01/30 03:02:07;;;;;;;10.00;3.33;;;;;;;;;;5012729;28;20228;-73
2022/01/30 03:04:36;;;;;;;9.57;2.90;;;;;;;;;;5013286;28;20211;-72
2022/01/30 03:07:04;;;;;;;10.50;3.10;;;;;;;;;;5013449;28;20271;-76
2022/01/30 03:09:33;;;;;;;14.33;3.50;;;;;;;;;;5013576;28;20204;-74
2022/01/30 03:12:03;;;;;;;12.77;3.30;;;;;;;;;;5013641;28;20258;-73
2022/01/30 03:14:31;;;;;;;13.33;2.93;;;;;;;;;;5009957;28;20263;-73
2022/01/30 03:17:00;;;;;;;13.30;3.20;;;;;;;;;;4993890;28;20213;-75
2022/01/30 03:19:28;;;;;;;14.93;3.10;;;;;;;;;;4993769;28;20295;-75
2022/01/30 03:21:57;;;;;;;14.37;3.10;;;;;;;;;;4993870;28;20650;-75
2022/01/30 03:24:25;;;;;;;15.90;3.73;;;;;;;;;;4993618;28;20660;-76
2022/01/30 03:26:54;;;;;;;10.67;2.67;;;;;;;;;;4996782;28;20224;-75
2022/01/30 03:29:24;;;;;;;11.63;2.83;;;;;;;;;;5013315;28;20621;-75
2022/01/30 03:31:52;;;;;;;14.90;3.37;;;;;;;;;;5013189;28;20200;-75
2022/01/30 03:34:21;;;;;;;17.77;3.20;;;;;;;;;;5013471;28;20290;-74
2022/01/30 03:36:49;;;;;;;16.13;3.53;;;;;;;;;;5013307;28;20205;-73
2022/01/30 03:39:18;;;;;;;14.13;3.43;;;;;;;;;;5013724;28;20257;-74
2022/01/30 03:41:46;;;;;;;16.57;3.43;;;;;;;;;;5012921;28;20204;-75
2022/01/30 03:44:15;;;;;;;12.30;3.00;;;;;;;;;;5013014;28;20655;-74
2022/01/30 03:46:45;;;;;;;12.63;3.60;;;;;;;;;;5013184;28;20208;-74
2022/01/30 03:49:24;;;;;;;12.00;3.10;;;;;;;;;;5013250;28;20550;-74
2022/01/30 03:51:53;;;;;;;10.23;2.73;;;;;;;;;;5013252;28;20204;-74
2022/01/30 03:54:21;;;;;;;17.17;3.77;;;;;;;;;;5012968;28;20270;-73
2022/01/30 03:56:49;;;;;;;13.87;2.77;;;;;;;;;;5012927;28;20251;-76
2022/01/30 03:59:18;;;;;;;10.47;3.30;;;;;;;;;;5013571;28;20244;-75
2022/01/30 04:01:48;;;;;;;11.40;3.10;;;;;;;;;;5012959;28;20251;-76
2022/01/30 04:04:16;;;;;;;13.70;3.57;;;;;;;;;;5013049;28;20200;-75
2022/01/30 04:06:45;;;;;;;14.57;3.43;;;;;;;;;;5013907;28;20613;-77
2022/01/30 04:09:13;;;;;;;14.97;3.27;;;;;;;;;;5013701;28;20267;-76
2022/01/30 04:11:42;;;;;;;18.60;3.63;;;;;;;;;;5012527;28;20207;-75
2022/01/30 04:14:11;;;;;;;16.53;4.27;;;;;;;;;;5017080;28;20729;-76
2022/01/30 04:16:39;;;;;;;17.03;3.83;;;;;;;;;;5017339;28;20273;-74
2022/01/30 04:19:09;;;;;;;19.43;4.37;;;;;;;;;;5016259;28;20266;-75
2022/01/30 04:21:38;;;;;;;21.40;4.43;;;;;;;;;;5016338;28;20211;-76
2022/01/30 04:24:07;;;;;;;17.13;4.03;;;;;;;;;;5015591;28;20200;-74
2022/01/30 04:26:37;;;;;;;20.73;3.67;;;;;;;;;;5016595;28;20288;-76
2022/01/30 04:29:05;;;;;;;17.67;4.30;;;;;;;;;;5015928;28;20227;-77
2022/01/30 04:31:34;;;;;;;18.80;4.43;;;;;;;;;;5016049;28;20258;-76
2022/01/30 04:34:03;;;;;;;19.13;4.10;;;;;;;;;;5015890;28;20235;-75
2022/01/30 04:36:39;;;;;;;19.40;4.43;;;;;;;;;;5016020;28;20204;-74
2022/01/30 04:39:15;;;;;;;22.27;5.00;;;;;;;;;;5015484;28;20235;-74
2022/01/30 04:42:06;;;;;;;30.03;5.07;;;;;;;;;;5013811;28;20266;-74
2022/01/30 04:53:14;;;;;;;20.83;4.93;;;;;;;;;;5004193;28;20188;-75
2022/01/30 04:58:34;;;;;;;17.77;4.50;;;;;;;;;;5015555;28;20817;-75
2022/01/30 05:01:11;;;;;;;16.97;4.00;;;;;;;;;;5013574;28;20192;-77
2022/01/30 05:03:56;;;;;;;17.53;4.83;;;;;;;;;;5015063;28;20221;-74
2022/01/30 05:06:33;;;;;;;18.07;4.00;;;;;;;;;;5014974;28;20664;-74
2022/01/30 05:09:03;;;;;;;18.53;3.90;;;;;;;;;;5015715;28;20298;-75
2022/01/30 05:11:31;;;;;;;14.63;4.10;;;;;;;;;;5015838;28;20223;-75
2022/01/30 05:14:00;;;;;;;11.77;3.23;;;;;;;;;;5015355;28;20220;-76
2022/01/30 05:16:33;;;;;;;14.03;3.40;;;;;;;;;;5015432;28;20219;-76
2022/01/30 05:19:02;;;;;;;13.33;3.60;;;;;;;;;;5015342;28;20230;-73
2022/01/30 05:21:31;;;;;;;15.00;3.70;;;;;;;;;;5015333;28;20211;-75
2022/01/30 05:24:00;;;;;;;12.83;3.23;;;;;;;;;;5014257;28;20721;-75
2022/01/30 05:26:30;;;;;;;15.17;3.57;;;;;;;;;;5014887;28;20702;-74
2022/01/30 05:28:59;;;;;;;22.70;4.47;;;;;;;;;;5015197;28;20223;-76
2022/01/30 05:31:27;;;;;;;15.90;3.83;;;;;;;;;;5015307;28;20208;-77
2022/01/30 05:33:56;;;;;;;19.23;3.80;;;;;;;;;;5014829;28;20588;-76
2022/01/30 05:36:25;;;;;;;25.60;4.37;;;;;;;;;;5014959;28;20208;-74
2022/01/30 05:38:53;;;;;;;17.27;4.20;;;;;;;;;;5014528;28;20577;-75
2022/01/30 05:41:22;;;;;;;17.60;4.43;;;;;;;;;;5015061;28;20203;-76
2022/01/30 05:43:57;;;;;;;17.67;4.40;;;;;;;;;;5014823;28;20634;-76
2022/01/30 05:46:32;;;;;;;17.40;4.37;;;;;;;;;;5014472;28;20221;-75
2022/01/30 05:49:00;;;;;;;18.77;4.17;;;;;;;;;;5014534;28;20227;-74
2022/01/30 05:51:29;;;;;;;23.17;4.17;;;;;;;;;;5007196;28;20688;-74
2022/01/30 05:53:57;;;;;;;23.27;4.60;;;;;;;;;;4994572;28;20228;-75
2022/01/30 05:56:26;;;;;;;19.03;4.40;;;;;;;;;;4994923;28;20665;-78
2022/01/30 05:58:55;;;;;;;16.40;3.87;;;;;;;;;;4994911;28;20688;-75
2022/01/30 06:01:24;;;;;;;23.67;4.87;;;;;;;;;;5004460;28;20197;-75
2022/01/30 06:03:52;;;;;;;21.47;4.33;;;;;;;;;;5014374;28;20204;-76
2022/01/30 06:06:21;;;;;;;14.73;3.80;;;;;;;;;;5014668;28;20211;-76
2022/01/30 06:09:00;;;;;;;22.03;4.73;;;;;;;;;;5014546;28;20227;-75
2022/01/30 06:11:31;;;;;;;22.47;4.70;;;;;;;;;;5014606;28;20202;-77
2022/01/30 06:14:01;;;;;;;18.90;4.60;;;;;;;;;;5014138;28;20224;-78
2022/01/30 06:16:29;;;;;;;21.33;5.43;;;;;;;;;;5011780;28;20207;-77
2022/01/30 06:19:01;;;;;;;23.10;5.13;;;;;;;;;;5014576;28;20701;-75
2022/01/30 06:21:29;;;;;;;22.40;5.63;;;;;;;;;;5014068;28;20273;-74
2022/01/30 06:23:58;;;;;;;24.07;5.10;;;;;;;;;;5014191;28;20207;-77
2022/01/30 06:26:27;;;;;;;24.90;5.40;;;;;;;;;;5014981;28;20212;-75
2022/01/30 06:28:55;;;;;;;22.00;5.17;;;;;;;;;;5013441;28;20235;-74
2022/01/30 06:31:26;;;;;;;27.93;5.77;;;;;;;;;;5013930;28;20263;-76
2022/01/30 06:33:57;;;;;;;24.53;5.60;;;;;;;;;;5013776;28;20212;-76
2022/01/30 06:36:25;;;;;;;24.07;5.43;;;;;;;;;;5013886;28;20203;-77
2022/01/30 06:38:54;;;;;;;26.73;6.27;;;;;;;;;;5013699;28;20236;-77
2022/01/30 06:41:22;;;;;;;29.73;5.00;;;;;;;;;;5013723;28;20204;-76
2022/01/30 06:43:51;;;;;;;29.57;6.00;;;;;;;;;;5013283;28;20196;-76
2022/01/30 06:46:19;;;;;;;21.10;5.43;;;;;;;;;;4995726;28;20240;-74
2022/01/30 06:48:49;;;;;;;20.37;5.20;;;;;;;;;;4993997;28;20232;-76
2022/01/30 06:51:18;;;;;;;25.67;5.23;;;;;;;;;;4999999;28;20211;-76
2022/01/30 06:53:46;;;;;;;25.83;5.97;;;;;;;;;;5013305;28;20681;-76
2022/01/30 06:56:14;;;;;;;21.83;5.50;;;;;;;;;;5013370;28;20224;-74
2022/01/30 06:58:43;;;;;;;25.03;5.83;;;;;;;;;;5013086;28;20274;-77
2022/01/30 07:01:11;;;;;;;25.90;5.57;;;;;;;;;;5013243;28;20662;-73
2022/01/30 07:03:40;;;;;;;29.87;6.50;;;;;;;;;;5013437;28;20616;-74
2022/01/30 07:06:10;;;;;;;30.27;6.27;;;;;;;;;;5013465;28;20200;-75
2022/01/30 07:08:38;;;;;;;24.83;5.70;;;;;;;;;;5013027;28;20224;-74
2022/01/30 07:11:06;;;;;;;25.50;6.57;;;;;;;;;;5013337;28;20254;-72
2022/01/30 07:13:35;;;;;;;28.10;6.10;;;;;;;;;;5012904;28;20208;-75
2022/01/30 07:16:03;;;;;;;28.03;6.10;;;;;;;;;;5013230;28;20232;-75
2022/01/30 07:18:32;;;;;;;22.33;5.87;;;;;;;;;;5013272;28;20239;-75
2022/01/30 07:21:00;;;;;;;21.87;5.77;;;;;;;;;;5013216;28;20235;-74
2022/01/30 07:23:30;;;;;;;25.60;5.53;;;;;;;;;;5013089;28;20205;-74
2022/01/30 07:25:59;;;;;;;28.70;5.40;;;;;;;;;;5013020;28;20224;-74
2022/01/30 07:28:27;;;;;;;26.13;5.63;;;;;;;;;;5012717;28;20286;-76
2022/01/30 07:30:55;;;;;;;20.23;5.00;;;;;;;;;;5032604;28;20204;-74
2022/01/30 07:33:24;;;;;;;26.60;5.37;;;;;;;;;;5027932;28;20250;-76
2022/01/30 07:35:54;;;;;;;24.13;4.80;;;;;;;;;;5012775;28;20289;-75
2022/01/30 07:38:23;;;;;;;23.00;4.47;;;;;;;;;;5013048;28;20250;-74
2022/01/30 07:40:53;;;;;;;21.10;4.17;;;;;;;;;;5012684;28;20611;-76
2022/01/30 07:43:21;;;;;;;18.07;5.13;;;;;;;;;;5012567;28;20215;-72
2022/01/30 07:45:50;;;;;;;23.97;5.53;;;;;;;;;;4999138;28;20235;-75
2022/01/30 07:48:18;;;;;;;20.67;5.50;;;;;;;;;;5012391;28;20277;-75
2022/01/30 07:50:47;;;;;;;24.33;5.20;;;;;;;;;;5016356;28;20205;-74
2022/01/30 07:53:15;;;;;;;22.40;5.60;;;;;;;;;;5011436;28;20657;-73
2022/01/30 07:55:44;;;;;;;22.10;5.23;;;;;;;;;;5010885;28;20219;-72
2022/01/30 07:58:13;;;;;;;23.73;5.87;;;;;;;;;;5016778;28;20231;-73
2022/01/30 08:00:44;;;;;;;20.13;4.93;;;;;;;;;;5001851;28;20271;-75
2022/01/30 08:03:12;;;;;;;25.00;5.40;;;;;;;;;;5015336;28;20201;-75
2022/01/30 08:05:41;;;;;;;25.17;5.70;;;;;;;;;;5011540;28;20211;-74
2022/01/30 08:08:09;;;;;;;23.63;5.53;;;;;;;;;;5013886;28;20625;-76
2022/01/30 08:10:38;;;;;;;30.33;5.83;;;;;;;;;;5014679;28;20209;-74
2022/01/30 08:13:09;;;;;;;23.93;4.93;;;;;;;;;;5015835;28;20209;-73
2022/01/30 08:15:39;;;;;;;26.50;6.77;;;;;;;;;;5020494;28;20224;-74
2022/01/30 08:18:07;;;;;;;31.17;6.80;;;;;;;;;;5007303;28;20327;-74
2022/01/30 08:20:36;;;;;;;37.87;7.27;;;;;;;;;;5013930;28;20634;-73
2022/01/30 08:23:10;;;;;;;29.50;6.70;;;;;;;;;;5014791;28;20208;-73
2022/01/30 08:25:39;;;;;;;32.13;6.10;;;;;;;;;;5018525;28;20258;-73
2022/01/30 08:28:09;;;;;;;25.27;6.43;;;;;;;;;;5000958;28;20636;-73
2022/01/30 08:30:37;;;;;;;35.23;6.47;;;;;;;;;;5000342;28;20212;-75
2022/01/30 08:33:07;;;;;;;30.67;6.67;;;;;;;;;;5015827;28;20200;-76
2022/01/30 08:35:35;;;;;;;30.90;6.90;;;;;;;;;;5015663;28;20688;-74
2022/01/30 08:38:04;;;;;;;28.93;6.80;;;;;;;;;;5015190;28;20351;-75
2022/01/30 08:40:32;;;;;;;32.40;7.10;;;;;;;;;;5015268;28;20209;-74
2022/01/30 08:43:01;;;;;;;33.27;7.03;;;;;;;;;;5013869;28;20200;-73
2022/01/30 08:45:29;;;;;;;29.97;6.90;;;;;;;;;;5013608;28;20212;-75
2022/01/30 08:47:58;;;;;;;27.20;6.30;;;;;;;;;;5012148;28;20248;-73
2022/01/30 08:50:27;;;;;;;27.60;6.80;;;;;;;;;;5012685;28;20211;-73
2022/01/30 08:52:56;;;;;;;32.20;6.47;;;;;;;;;;5014586;28;20627;-73
2022/01/30 08:55:29;;;;;;;27.97;7.00;;;;;;;;;;5013867;28;20207;-75
2022/01/30 08:57:58;;;;;;;33.77;6.70;;;;;;;;;;5014329;28;20220;-75
2022/01/30 09:00:27;;;;;;;30.93;6.40;;;;;;;;;;5013679;28;20791;-74
2022/01/30 09:02:59;;;;;;;32.50;6.33;;;;;;;;;;5014153;28;21778;-73
2022/01/30 09:05:30;;;;;;;31.47;6.70;;;;;;;;;;5012895;28;20211;-75
2022/01/30 09:07:58;;;;;;;29.33;6.17;;;;;;;;;;5015165;28;20216;-73
2022/01/30 09:10:27;;;;;;;21.90;5.73;;;;;;;;;;5008769;28;20201;-73
2022/01/30 09:12:55;;;;;;;26.47;6.63;;;;;;;;;;5011245;28;20204;-72
2022/01/30 09:15:23;;;;;;;31.53;6.37;;;;;;;;;;5004588;28;20209;-73
2022/01/30 09:17:53;;;;;;;27.50;6.03;;;;;;;;;;5012496;28;20228;-73
2022/01/30 09:20:21;;;;;;;26.50;6.20;;;;;;;;;;5013069;28;20715;-74
2022/01/30 09:22:53;;;;;;;24.83;6.17;;;;;;;;;;5014968;28;20197;-75
2022/01/30 09:25:22;;;;;;;25.70;5.47;;;;;;;;;;5013850;28;20208;-72
2022/01/30 09:27:50;;;;;;;29.97;7.40;;;;;;;;;;5014254;28;20216;-73
2022/01/30 09:30:19;;;;;;;21.20;5.47;;;;;;;;;;5012356;28;20200;-73
2022/01/30 09:32:47;;;;;;;28.67;6.77;;;;;;;;;;5014291;28;20251;-73
2022/01/30 09:35:16;;;;;;;29.70;6.30;;;;;;;;;;5014544;28;20209;-72
2022/01/30 09:37:44;;;;;;;24.93;6.37;;;;;;;;;;5013265;28;20271;-73
2022/01/30 09:40:17;;;;;;;27.37;5.27;;;;;;;;;;5011183;28;20232;-75
2022/01/30 09:42:45;;;;;;;28.73;5.57;;;;;;;;;;5007964;28;20197;-73
2022/01/30 09:45:14;;;;;;;28.83;6.33;;;;;;;;;;5003834;28;20584;-75
2022/01/30 09:47:43;;;;;;;25.70;5.83;;;;;;;;;;5013417;28;20567;-74
2022/01/30 09:50:11;;;;;;;22.77;5.50;;;;;;;;;;5013350;28;20619;-74
2022/01/30 09:52:40;;;;;;;26.60;4.83;;;;;;;;;;5013480;28;20213;-77
2022/01/30 09:55:10;;;;;;;21.80;6.00;;;;;;;;;;5012515;28;20340;-74
2022/01/30 09:57:41;;;;;;;25.87;6.63;;;;;;;;;;5012111;28;20868;-76
2022/01/30 10:00:11;;;;;;;22.30;5.20;;;;;;;;;;5013669;28;20204;-75
2022/01/30 10:02:41;;;;;;;29.03;5.53;;;;;;;;;;5009387;28;20611;-73
2022/01/30 10:05:11;;;;;;;27.10;5.87;;;;;;;;;;5012588;28;20200;-74
2022/01/30 10:07:45;;;;;;;24.87;5.93;;;;;;;;;;5011672;28;20213;-74
2022/01/30 10:10:16;;;;;;;32.23;6.13;;;;;;;;;;5014005;28;20204;-75
2022/01/30 10:13:02;;;;;;;21.10;5.83;;;;;;;;;;5013663;28;20619;-75
2022/01/30 10:15:30;;;;;;;25.60;6.00;;;;;;;;;;5011663;28;20223;-74
2022/01/30 10:17:59;;;;;;;23.33;6.03;;;;;;;;;;5011902;28;20228;-76
2022/01/30 10:20:37;;;;;;;25.00;5.30;;;;;;;;;;5008658;28;20196;-75
2022/01/30 10:23:09;;;;;;;26.70;6.10;;;;;;;;;;5007825;28;20205;-75
2022/01/30 10:26:07;;;;;;;22.73;5.60;;;;;;;;;;5011953;28;20299;-75
2022/01/30 10:28:38;;;;;;;25.83;6.20;;;;;;;;;;4992992;28;20221;-75
2022/01/30 10:31:07;;;;;;;27.50;7.87;;;;;;;;;;5003231;28;20204;-75
2022/01/30 10:33:40;;;;;;;34.50;8.53;;;;;;;;;;5011487;28;20201;-74
2022/01/30 10:36:09;;;;;;;27.17;7.87;;;;;;;;;;5011912;28;20208;-74
2022/01/30 10:38:39;;;;;;;21.63;7.33;;;;;;;;;;5013356;28;20255;-76
2022/01/30 10:41:13;;;;;;;32.40;6.67;;;;;;;;;;5012730;28;20204;-74
2022/01/30 10:43:55;;;;;;;32.93;7.27;;;;;;;;;;5013895;28;20208;-74
2022/01/30 10:46:24;;;;;;;28.30;7.13;;;;;;;;;;5010711;28;20303;-74
2022/01/30 10:48:57;;;;;;;31.77;9.07;;;;;;;;;;5009556;28;20279;-74
2022/01/30 10:51:26;;;;;;;20.80;7.13;;;;;;;;;;5002518;28;20206;-74
2022/01/30 10:53:55;;;;;;;29.60;7.70;;;;;;;;;;5009209;28;20205;-73
2022/01/30 10:56:26;;;;;;;25.07;7.57;;;;;;;;;;5013080;28;20196;-74
2022/01/30 10:59:13;;;;;;;27.03;6.73;;;;;;;;;;5013332;28;20595;-72
2022/01/30 11:01:42;;;;;;;28.67;7.33;;;;;;;;;;5022312;23;20208;-73
2022/01/30 11:04:21;;;;;;;33.10;8.57;;;;;;;;;;5022271;28;20215;-73
2022/01/30 11:06:50;;;;;;;31.33;7.40;;;;;;;;;;5013258;28;20659;-73
2022/01/30 11:09:23;;;;;;;34.37;8.53;;;;;;;;;;5011651;28;20205;-73
2022/01/30 11:11:56;;;;;;;24.53;6.90;;;;;;;;;;5001752;28;20660;-76
2022/01/30 11:14:36;;;;;;;24.23;6.13;;;;;;;;;;5012588;28;20262;-74
2022/01/30 11:17:07;;;;;;;30.37;7.83;;;;;;;;;;5011410;28;20255;-73
2022/01/30 11:19:38;;;;;;;26.67;7.53;;;;;;;;;;5012661;28;20211;-72
2022/01/30 11:22:07;;;;;;;28.07;7.23;;;;;;;;;;5012026;28;20201;-74
2022/01/30 11:24:44;;;;;;;28.63;6.97;;;;;;;;;;5016867;28;20196;-73
2022/01/30 11:27:13;;;;;;;24.20;6.40;;;;;;;;;;5013996;28;20558;-74
2022/01/30 11:29:43;;;;;;;27.80;6.10;;;;;;;;;;5014273;28;20216;-73
2022/01/30 11:32:12;;;;;;;26.77;6.47;;;;;;;;;;5016317;28;20215;-75
2022/01/30 11:34:41;;;;;;;22.73;5.57;;;;;;;;;;5015656;28;20682;-73
2022/01/30 11:37:10;;;;;;;32.00;7.30;;;;;;;;;;5016989;28;20224;-74
2022/01/30 11:42:26;;;;;;;23.57;6.10;;;;;;;;;;5016019;28;20292;-75
2022/01/30 11:45:10;;;;;;;24.53;5.50;;;;;;;;;;5016809;28;20219;-75
2022/01/30 11:48:03;;;;;;;29.57;5.87;;;;;;;;;;4996923;28;20581;-75
2022/01/30 11:50:32;;;;;;;31.27;6.67;;;;;;;;;;5009799;28;20200;-72
2022/01/30 11:53:02;;;;;;;22.23;6.10;;;;;;;;;;5014444;28;20203;-73
2022/01/30 11:55:46;;;;;;;21.50;5.87;;;;;;;;;;5022640;28;20705;-76
2022/01/30 11:58:49;;;;;;;27.03;5.27;;;;;;;;;;5016103;28;20294;-75
2022/01/30 12:01:38;;;;;;;28.00;6.27;;;;;;;;;;5016579;28;20246;-75
2022/01/30 12:04:12;;;;;;;28.73;5.37;;;;;;;;;;5015960;28;20235;-73
2022/01/30 12:06:59;;;;;;;29.67;6.73;;;;;;;;;;5016372;28;20200;-75
2022/01/30 12:09:29;;;;;;;27.13;6.20;;;;;;;;;;5016228;28;20259;-74
2022/01/30 12:11:59;;;;;;;25.10;6.33;;;;;;;;;;5015355;28;20287;-75
2022/01/30 12:14:54;;;;;;;23.50;5.80;;;;;;;;;;5015324;28;20240;-75
2022/01/30 12:17:41;;;;;;;29.77;5.93;;;;;;;;;;5015643;28;20224;-75
2022/01/30 12:20:11;;;;;;;23.57;5.97;;;;;;;;;;5015824;28;20204;-74
2022/01/30 12:22:41;;;;;;;26.77;6.70;;;;;;;;;;5014240;28;20205;-74
2022/01/30 12:25:30;;;;;;;27.70;6.13;;;;;;;;;;5015567;28;20201;-74
2022/01/30 12:28:00;;;;;;;24.37;5.57;;;;;;;;;;5016018;28;20263;-73
2022/01/30 12:30:33;;;;;;;29.77;6.47;;;;;;;;;;5015534;28;20204;-74
2022/01/30 12:33:02;;;;;;;19.57;5.57;;;;;;;;;;5015460;28;20207;-75
2022/01/30 12:35:32;;;;;;;31.47;6.43;;;;;;;;;;5015418;28;20251;-75
2022/01/30 12:38:00;;;;;;;28.00;5.97;;;;;;;;;;5015902;28;20728;-75
2022/01/30 12:40:29;;;;;;;25.67;5.93;;;;;;;;;;5015287;28;20209;-75
2022/01/30 12:42:58;;;;;;;28.30;5.80;;;;;;;;;;5015100;28;20205;-72
2022/01/30 12:45:27;;;;;;;24.33;6.40;;;;;;;;;;5013395;28;20215;-74
2022/01/30 12:47:57;;;;;;;28.80;6.53;;;;;;;;;;5013721;28;20212;-75
2022/01/30 12:50:30;;;;;;;24.87;5.57;;;;;;;;;;5014080;28;20267;-74
2022/01/30 12:53:01;;;;;;;28.73;6.23;;;;;;;;;;5015151;28;20200;-73
2022/01/30 12:55:30;;;;;;;28.23;6.17;;;;;;;;;;5014468;28;20212;-73
2022/01/30 12:58:00;;;;;;;27.57;6.23;;;;;;;;;;5012766;28;20655;-74
2022/01/30 13:00:28;;;;;;;32.70;6.10;;;;;;;;;;5014763;28;20540;-72
2022/01/30 13:02:57;;;;;;;29.07;6.47;;;;;;;;;;5010765;28;20216;-74
2022/01/30 13:05:28;;;;;;;21.53;6.07;;;;;;;;;;5012274;28;20296;-75
2022/01/30 13:07:57;;;;;;;27.93;5.37;;;;;;;;;;5019224;28;20575;-72
2022/01/30 13:10:28;;;;;;;25.13;5.57;;;;;;;;;;5008652;28;20215;-74
2022/01/30 13:12:58;;;;;;;21.33;5.37;;;;;;;;;;5010367;28;20200;-74
2022/01/30 13:15:27;;;;;;;25.03;5.23;;;;;;;;;;5012145;28;20208;-74
2022/01/30 13:17:58;;;;;;;26.70;5.70;;;;;;;;;;5009297;28;20220;-74
2022/01/30 13:20:28;;;;;;;22.43;5.97;;;;;;;;;;5014925;28;20235;-75
2022/01/30 13:22:57;;;;;;;24.90;5.80;;;;;;;;;;5014058;28;20215;-73
2022/01/30 13:25:26;;;;;;;17.60;5.17;;;;;;;;;;5007223;28;20213;-74
2022/01/30 13:28:00;;;;;;;24.57;5.53;;;;;;;;;;4995338;28;20217;-73
2022/01/30 13:30:30;;;;;;;27.20;6.80;;;;;;;;;;5010827;28;20247;-73
2022/01/30 13:32:59;;;;;;;26.10;6.33;;;;;;;;;;5014987;28;20207;-75
2022/01/30 13:35:30;;;;;;;22.67;6.27;;;;;;;;;;5006602;28;20284;-76
2022/01/30 13:38:01;;;;;;;26.73;6.13;;;;;;;;;;5006757;28;20307;-75
2022/01/30 13:40:39;;;;;;;24.93;6.37;;;;;;;;;;5006111;28;20200;-74
2022/01/30 13:43:18;;;;;;;26.53;7.13;;;;;;;;;;4995321;28;20620;-74
2022/01/30 13:48:34;;;;;;;29.20;6.60;;;;;;;;;;5014127;28;20217;-73
2022/01/30 13:51:05;;;;;;;24.43;6.17;;;;;;;;;;5013653;28;20200;-73
2022/01/30 13:53:36;;;;;;;25.53;5.87;;;;;;;;;;5014072;28;20219;-76
2022/01/30 13:56:07;;;;;;;33.13;6.90;;;;;;;;;;5014198;28;20200;-72
2022/01/30 13:58:47;;;;;;;27.40;5.97;;;;;;;;;;5012999;28;20235;-73
2022/01/30 14:01:17;;;;;;;24.43;6.00;;;;;;;;;;5000748;28;20254;-74
2022/01/30 14:03:48;;;;;;;25.77;6.10;;;;;;;;;;5013398;28;20216;-73
2022/01/30 14:06:17;;;;;;;23.43;5.60;;;;;;;;;;5014357;28;20575;-76
2022/01/30 14:08:52;;;;;;;27.67;6.00;;;;;;;;;;5013974;28;20768;-73
2022/01/30 14:11:26;;;;;;;25.23;6.00;;;;;;;;;;5014538;28;20204;-75
2022/01/30 14:13:59;;;;;;;23.43;6.37;;;;;;;;;;5013727;28;20201;-76
2022/01/30 14:16:35;;;;;;;25.63;6.20;;;;;;;;;;5013728;28;20208;-73
2022/01/30 14:19:04;;;;;;;20.57;5.30;;;;;;;;;;4994400;28;20264;-76
2022/01/30 14:21:34;;;;;;;21.83;5.43;;;;;;;;;;5002347;28;20235;-73
2022/01/30 14:24:14;;;;;;;24.90;6.00;;;;;;;;;;5012447;28;20209;-73
2022/01/30 14:26:42;;;;;;;22.97;6.13;;;;;;;;;;5014107;28;20204;-74
2022/01/30 14:29:14;;;;;;;26.17;5.57;;;;;;;;;;5013738;28;20239;-76
2022/01/30 14:31:50;;;;;;;27.73;5.90;;;;;;;;;;5013546;28;20208;-74
2022/01/30 14:34:19;;;;;;;28.63;6.03;;;;;;;;;;5013737;28;20204;-73
2022/01/30 14:36:47;;;;;;;28.53;6.00;;;;;;;;;;5013433;28;20215;-74
2022/01/30 14:39:16;;;;;;;21.47;5.80;;;;;;;;;;5013433;28;20224;-75
2022/01/30 14:41:44;;;;;;;23.67;5.50;;;;;;;;;;5013669;28;20196;-75
2022/01/30 14:44:14;;;;;;;24.70;5.63;;;;;;;;;;5013369;28;20204;-75
2022/01/30 14:46:42;;;;;;;25.07;6.03;;;;;;;;;;5013569;28;20204;-75
2022/01/30 14:49:11;;;;;;;25.83;5.50;;;;;;;;;;5012930;28;20275;-72
2022/01/30 14:51:40;;;;;;;22.80;6.03;;;;;;;;;;5013619;28;20212;-73
2022/01/30 14:54:08;;;;;;;22.03;5.40;;;;;;;;;;5013072;28;20204;-73
2022/01/30 14:56:37;;;;;;;28.93;5.57;;;;;;;;;;5012646;28;20625;-74
2022/01/30 14:59:05;;;;;;;20.70;5.30;;;;;;;;;;5013158;28;20226;-74
2022/01/30 15:01:35;;;;;;;27.10;5.83;;;;;;;;;;5013090;28;20204;-74
2022/01/30 15:04:04;;;;;;;28.57;5.53;;;;;;;;;;5012420;28;20232;-74
2022/01/30 15:06:32;;;;;;;25.40;5.60;;;;;;;;;;5013182;28;20247;-72
2022/01/30 15:09:02;;;;;;;22.57;6.10;;;;;;;;;;5013155;28;20220;-75
2022/01/30 15:11:31;;;;;;;23.93;6.00;;;;;;;;;;5013298;28;20209;-72
2022/01/30 15:13:59;;;;;;;31.23;6.67;;;;;;;;;;5000691;28;20209;-74
2022/01/30 15:16:40;;;;;;;23.40;5.47;;;;;;;;;;5007574;28;20262;-74
2022/01/30 15:19:11;;;;;;;24.03;4.97;;;;;;;;;;5003833;28;20216;-75
2022/01/30 15:21:40;;;;;;;28.80;6.20;;;;;;;;;;5011287;28;20261;-73
2022/01/30 15:24:10;;;;;;;24.57;5.80;;;;;;;;;;5009592;28;20250;-75
2022/01/30 15:26:38;;;;;;;24.77;5.33;;;;;;;;;;5009995;28;20220;-75
2022/01/30 15:29:09;;;;;;;24.90;5.47;;;;;;;;;;5010480;28;20729;-74